Aviation Digital Data Service (ADDS)

Output produced by TAFs form (0101 UTC 22 September 2017)
found at http://www.aviationweather.gov/adds/tafs/
 
METAR text: LSGG 220050Z AUTO VRB01KT CAVOK 07/07 Q1021 NOSIG
Conditions at: LSGG (GENEVA/COINTRIN , CH) observed 0050 UTC 22 September 2017
Temperature: 7.0°C (45°F)
Dewpoint: 7.0°C (45°F) [RH = 100%]
Pressure (altimeter): 30.15 inches Hg (1021.0 mb)
Winds: variable direction winds at 1 MPH (1 knots; 0.5 m/s)
Visibility: 6 or more miles (10+ km)
Ceiling: ceiling and visibility are OK
Clouds: unknown
Weather: no significant weather observed at this time

Forecast for: LSGG (GENEVA/COINTRIN , CH)
Text: TAF LSGG 212325Z 2200/2306 VRB03KT CAVOK TX20/2215Z TN05/2205Z TN09/2305Z
Forecast period: 0000 UTC 22 September 2017 to 0600 UTC 23 September 2017
Forecast type: FROM: standard forecast or significant change
Winds: variable direction winds at 3 MPH (3 knots; 1.6 m/s)
Visibility: 6 or more miles (10+ km)
Clouds: not forecast
Weather: no significant weather forecast for this period
Text: PROB30
Forecast period: 0300 to 0800 UTC 22 September 2017
Forecast type: TEMPORARY: The following changes expected for less than half the time period
Visibility: 0.93 miles (1.50 km)
Weather: BCFG  (patches of fog)